Bredene, Belgium
Current Conditions -  °F | °C
As of 11:20 PM on Sunday 23 Nov 2014 (Local Time) from EBOS Reporting Station
Light Rain Light Rain  
Wind Chill: 43°   Ceiling: 1300
Heat Index: 48°   Visibility: 4mi
Dew Point: 48°   Wind: 13mph
Humidity: 100%   Direction: 350°N
Pressure: 30.09"   Gusts: NA
Location:  51.23°N, 2.98°E
Report Text: EBOS 232220Z 35011KT 7000 -RADZ SCT006 BKN013 09/09 Q1019 TEMPO 3500 DZRA BKN005
Loading
Personal Weather Stations






























Interactive Weather Map New forecast layout! Learn more

10-Day Weather Forecast

Advertisements
Track Severe Weather on mobile